createdAt,value
2022-09-17T00:01:41.678Z,100856.97
2022-09-17T00:04:11.199Z,100857.97
2022-09-17T00:06:39.495Z,100848.06
2022-09-17T00:09:09.187Z,100851.94
2022-09-17T00:11:41.601Z,100850.97
2022-09-17T00:14:14.388Z,100860.88
2022-09-17T00:16:47.070Z,100869.69
2022-09-17T00:19:19.177Z,100866.19
2022-09-17T00:21:47.721Z,100867.66
2022-09-17T00:24:17.754Z,100876.66
2022-09-17T00:26:46.336Z,100881.06
2022-09-17T00:29:14.739Z,100875.56
2022-09-17T00:31:44.505Z,100884.19
2022-09-17T00:34:13.071Z,100876.84
2022-09-17T00:36:41.566Z,100867.84
2022-09-17T00:39:12.457Z,100870.66
2022-09-17T00:41:41.238Z,100870.78
2022-09-17T00:44:44.467Z,100866.97
2022-09-17T00:47:26.223Z,100862.25
2022-09-17T00:49:58.529Z,100870.94
2022-09-17T00:52:31.039Z,100863.00
2022-09-17T00:55:06.477Z,100863.72
2022-09-17T00:57:35.446Z,100871.88
2022-09-17T01:00:06.100Z,100870.16
2022-09-17T01:02:36.615Z,100862.25
2022-09-17T01:05:05.538Z,100866.13
2022-09-17T01:07:53.354Z,100872.53
2022-09-17T01:10:37.137Z,100876.38
2022-09-17T01:13:19.611Z,100873.06
2022-09-17T01:16:01.282Z,100873.63
2022-09-17T01:18:58.695Z,100875.22
2022-09-17T01:21:39.651Z,100874.09
2022-09-17T01:24:54.947Z,100882.81
2022-09-17T01:28:15.528Z,100885.59
2022-09-17T01:31:05.635Z,100883.19
2022-09-17T01:33:43.496Z,100878.78
2022-09-17T01:36:23.475Z,100874.56
2022-09-17T01:38:59.850Z,100882.31
2022-09-17T01:41:34.280Z,100876.44
2022-09-17T01:44:12.085Z,100878.75
2022-09-17T01:46:47.937Z,100883.38
2022-09-17T01:49:18.130Z,100880.84
2022-09-17T01:51:49.655Z,100877.66
2022-09-17T01:54:24.790Z,100888.50
2022-09-17T01:56:59.434Z,100892.22
2022-09-17T01:59:32.624Z,100885.38
2022-09-17T02:02:08.352Z,100881.28
2022-09-17T02:04:43.155Z,100891.66
2022-09-17T02:07:16.160Z,100884.00
2022-09-17T02:09:51.017Z,100901.41
2022-09-17T02:12:25.372Z,100896.69
2022-09-17T02:14:58.518Z,100901.19
2022-09-17T02:17:33.307Z,100899.66
2022-09-17T02:20:03.752Z,100893.56
2022-09-17T02:22:40.604Z,100891.63
2022-09-17T02:25:16.434Z,100886.72
2022-09-17T02:27:53.603Z,100889.38
2022-09-17T02:30:22.126Z,100895.13
2022-09-17T02:32:52.105Z,100895.50
2022-09-17T02:35:20.812Z,100887.50
2022-09-17T02:37:49.466Z,100897.53
2022-09-17T02:40:21.340Z,100899.84
2022-09-17T02:43:09.576Z,100903.91
2022-09-17T02:45:47.908Z,100899.63
2022-09-17T02:48:36.201Z,100893.19
2022-09-17T02:51:18.572Z,100909.16
2022-09-17T02:53:56.938Z,100908.34
2022-09-17T02:56:41.284Z,100908.66
2022-09-17T02:59:19.876Z,100890.00
2022-09-17T03:01:54.859Z,100903.97
2022-09-17T03:04:28.571Z,100911.72
2022-09-17T03:06:59.554Z,100905.78
2022-09-17T03:09:28.121Z,100910.28
2022-09-17T03:11:56.743Z,100910.28
2022-09-17T03:14:25.314Z,100909.53
2022-09-17T03:16:53.836Z,100913.25
2022-09-17T03:19:22.376Z,100905.69
2022-09-17T03:21:52.302Z,100915.00
2022-09-17T03:24:20.851Z,100908.75
2022-09-17T03:26:50.415Z,100911.00
2022-09-17T03:29:19.156Z,100913.72
2022-09-17T03:31:47.882Z,100898.91
2022-09-17T03:34:16.561Z,100908.78
2022-09-17T03:36:45.090Z,100910.94
2022-09-17T03:39:15.095Z,100906.78
2022-09-17T03:41:43.624Z,100913.00
2022-09-17T03:44:12.524Z,100910.31
2022-09-17T03:46:41.113Z,100909.44
2022-09-17T03:49:09.969Z,100918.13
2022-09-17T03:51:38.492Z,100912.81
2022-09-17T03:54:07.231Z,100914.06
2022-09-17T03:56:37.199Z,100924.53
2022-09-17T03:59:05.773Z,100923.69
2022-09-17T04:01:34.401Z,100916.34
2022-09-17T04:04:03.786Z,100931.56
2022-09-17T04:06:32.446Z,100924.53
2022-09-17T04:09:03.500Z,100931.22
2022-09-17T04:11:32.129Z,100937.38
2022-09-17T04:14:02.085Z,100938.47
2022-09-17T04:16:30.717Z,100944.09
2022-09-17T04:18:59.289Z,100936.84
2022-09-17T04:21:27.908Z,100935.25
2022-09-17T04:23:56.553Z,100936.03
2022-09-17T04:26:25.083Z,100935.75
2022-09-17T04:28:53.605Z,100934.88
2022-09-17T04:31:25.093Z,100938.00
2022-09-17T04:33:53.686Z,100936.06
2022-09-17T04:36:22.266Z,100946.41
2022-09-17T04:38:51.117Z,100946.38
2022-09-17T04:41:19.638Z,100946.84
2022-09-17T04:43:48.153Z,100944.31
2022-09-17T04:46:17.164Z,100948.44
2022-09-17T04:48:47.241Z,100930.28
2022-09-17T04:51:15.781Z,100938.59
2022-09-17T04:53:44.290Z,100938.22
2022-09-17T04:56:12.881Z,100944.81
2022-09-17T04:58:41.475Z,100943.53
2022-09-17T05:01:10.055Z,100953.41
2022-09-17T05:03:38.579Z,100946.13
2022-09-17T05:06:08.730Z,100948.94
2022-09-17T05:08:37.507Z,100948.81
2022-09-17T05:11:06.360Z,100959.03
2022-09-17T05:13:35.045Z,100954.09
2022-09-17T05:16:04.024Z,100958.56
2022-09-17T05:18:32.559Z,100962.53
2022-09-17T05:21:01.099Z,100962.78
2022-09-17T05:23:31.005Z,100973.88
2022-09-17T05:26:00.716Z,100964.31
2022-09-17T05:28:29.741Z,100973.88
2022-09-17T05:31:01.198Z,100986.38
2022-09-17T05:33:30.215Z,100982.41
2022-09-17T05:35:59.939Z,100984.56
2022-09-17T05:38:29.824Z,100980.59
2022-09-17T05:40:58.392Z,100981.06
2022-09-17T05:43:26.948Z,100985.31
2022-09-17T05:45:55.621Z,100979.78
2022-09-17T05:48:24.140Z,100989.88
2022-09-17T05:50:52.746Z,100987.50
2022-09-17T05:53:21.267Z,100991.94
2022-09-17T05:55:51.217Z,100988.91
2022-09-17T05:58:20.893Z,100985.69
2022-09-17T06:00:49.909Z,100984.56
2022-09-17T06:03:20.492Z,100989.34
2022-09-17T06:05:55.787Z,100999.22
2022-09-17T06:08:24.378Z,100992.28
2022-09-17T06:10:56.987Z,100993.34
2022-09-17T06:13:28.872Z,101005.97
2022-09-17T06:15:57.541Z,101018.28
2022-09-17T06:18:26.726Z,101014.63
2022-09-17T06:20:56.073Z,101017.28
2022-09-17T06:23:25.254Z,101014.91
2022-09-17T06:25:57.509Z,101016.59
2022-09-17T06:28:26.701Z,101015.06
2022-09-17T06:30:57.298Z,101025.78
2022-09-17T06:33:26.853Z,101026.56
2022-09-17T06:36:00.661Z,101030.41
2022-09-17T06:38:30.337Z,101027.69
2022-09-17T06:41:00.707Z,101027.94
2022-09-17T06:43:29.646Z,101037.94
2022-09-17T06:46:00.164Z,101037.91
2022-09-17T06:48:29.434Z,101038.06
2022-09-17T06:51:03.425Z,101036.94
2022-09-17T06:53:32.480Z,101041.38
2022-09-17T06:56:06.455Z,101045.66
2022-09-17T06:58:37.118Z,101038.16
2022-09-17T07:01:06.965Z,101040.28
2022-09-17T07:03:35.872Z,101041.06
2022-09-17T07:06:05.107Z,101040.06
2022-09-17T07:08:35.473Z,101036.31
2022-09-17T07:11:05.475Z,101043.19
2022-09-17T07:13:34.055Z,101034.09
2022-09-17T07:16:04.695Z,101039.00
2022-09-17T07:18:33.758Z,101035.50
2022-09-17T07:21:03.946Z,101030.75
2022-09-17T07:23:34.648Z,101032.53
2022-09-17T07:26:06.249Z,101035.38
2022-09-17T07:28:35.008Z,101031.13
2022-09-17T07:31:06.507Z,101036.22
2022-09-17T07:33:37.559Z,101032.38
2022-09-17T07:36:08.182Z,101035.69
2022-09-17T07:38:37.167Z,101035.69
2022-09-17T07:41:08.763Z,101034.00
2022-09-17T07:43:37.547Z,101037.59
2022-09-17T07:46:08.772Z,101026.84
2022-09-17T07:48:37.316Z,101027.63
2022-09-17T07:51:05.998Z,101032.81
2022-09-17T07:53:34.555Z,101032.84
2022-09-17T07:56:03.427Z,101039.38
2022-09-17T07:58:35.986Z,101046.59
2022-09-17T08:01:05.521Z,101036.78
2022-09-17T08:03:34.312Z,101046.91
2022-09-17T08:06:04.965Z,101048.19
2022-09-17T08:08:35.822Z,101043.59
2022-09-17T08:11:05.571Z,101048.78
2022-09-17T08:13:36.159Z,101043.03
2022-09-17T08:16:07.264Z,101051.38
2022-09-17T08:18:36.356Z,101046.53
2022-09-17T08:21:06.994Z,101039.00
2022-09-17T08:23:37.421Z,101039.59
2022-09-17T08:26:08.637Z,101043.78
2022-09-17T08:28:38.554Z,101041.16
2022-09-17T08:31:08.916Z,101036.53
2022-09-17T08:33:39.150Z,101044.09
2022-09-17T08:36:09.499Z,101039.88
2022-09-17T08:38:38.976Z,101040.13
2022-09-17T08:41:18.941Z,101036.38
2022-09-17T08:43:59.745Z,101035.25
2022-09-17T08:46:32.294Z,101042.13
2022-09-17T08:49:08.595Z,101040.38
2022-09-17T08:51:49.172Z,101042.88
2022-09-17T08:54:24.375Z,101045.97
2022-09-17T08:57:08.886Z,101036.22
2022-09-17T08:59:46.982Z,101040.63
2022-09-17T09:02:26.056Z,101041.28
2022-09-17T09:05:03.894Z,101046.31
2022-09-17T09:07:39.091Z,101034.81
2022-09-17T09:10:19.860Z,101050.94
2022-09-17T09:12:50.634Z,101046.47
2022-09-17T09:15:38.235Z,101046.56
2022-09-17T09:18:19.416Z,101046.88
2022-09-17T09:20:53.593Z,101040.50
2022-09-17T09:23:28.393Z,101038.97
2022-09-17T09:26:05.008Z,101041.44
2022-09-17T09:28:46.472Z,101035.69
2022-09-17T09:31:35.853Z,101035.16
2022-09-17T09:34:05.201Z,101029.25
2022-09-17T09:36:35.303Z,101033.09
2022-09-17T09:39:11.047Z,101029.25
2022-09-17T09:41:47.336Z,101035.25
2022-09-17T09:44:17.289Z,101035.25
2022-09-17T09:47:10.600Z,101047.41
2022-09-17T09:49:53.557Z,101050.38
2022-09-17T09:52:36.636Z,101044.22
2022-09-17T09:55:26.370Z,101043.84
2022-09-17T09:58:04.227Z,101039.53
2022-09-17T10:00:37.348Z,101037.28
2022-09-17T10:03:15.124Z,101032.31
2022-09-17T10:05:55.702Z,101032.66
2022-09-17T10:08:24.451Z,101024.97
2022-09-17T10:11:04.479Z,101029.81
2022-09-17T10:13:35.679Z,101030.78
2022-09-17T10:16:18.951Z,101021.66
2022-09-17T10:18:50.041Z,101023.38
2022-09-17T10:21:23.179Z,101013.88
2022-09-17T10:23:52.218Z,101002.16
2022-09-17T10:26:30.033Z,101007.09
2022-09-17T10:29:01.543Z,101025.91
2022-09-17T10:31:47.022Z,101029.53
2022-09-17T10:34:23.789Z,101029.19
2022-09-17T10:36:52.954Z,101020.13
2022-09-17T10:39:34.178Z,101023.25
2022-09-17T10:42:04.810Z,101021.47
2022-09-17T10:44:35.196Z,100998.03
2022-09-17T10:47:06.575Z,101002.53
2022-09-17T10:49:43.610Z,101001.41
2022-09-17T10:52:24.841Z,101003.19
2022-09-17T10:55:19.346Z,101018.31
2022-09-17T10:58:14.692Z,101005.03
2022-09-17T11:01:03.187Z,101001.63
2022-09-17T11:03:58.629Z,101004.75
2022-09-17T11:06:33.803Z,101004.63
2022-09-17T11:09:16.331Z,100976.66
2022-09-17T11:11:56.605Z,100982.88
2022-09-17T11:14:50.441Z,100990.78
2022-09-17T11:17:42.415Z,100986.28
2022-09-17T11:20:22.660Z,101005.22
2022-09-17T11:23:03.523Z,101035.88
2022-09-17T11:25:44.780Z,101034.38
2022-09-17T11:28:33.933Z,101036.00
2022-09-17T11:31:18.394Z,101056.09
2022-09-17T11:34:05.841Z,101066.22
2022-09-17T11:36:45.331Z,101073.00
2022-09-17T11:39:20.969Z,101070.38
2022-09-17T11:41:53.319Z,101069.84
2022-09-17T11:44:28.450Z,101066.47
2022-09-17T11:47:04.418Z,101063.63
2022-09-17T11:49:38.723Z,101062.06
2022-09-17T11:52:12.435Z,101057.66
2022-09-17T11:54:46.919Z,101060.22
2022-09-17T11:57:20.554Z,101056.34
2022-09-17T11:59:55.509Z,101057.28
2022-09-17T12:02:27.631Z,101062.94
2022-09-17T12:05:03.342Z,101066.88
2022-09-17T12:07:42.291Z,101062.81
2022-09-17T12:10:45.231Z,101058.59
2022-09-17T12:13:27.152Z,101068.81
2022-09-17T12:16:05.558Z,101067.78
2022-09-17T12:18:46.786Z,101069.25
2022-09-17T12:21:19.435Z,101057.84
2022-09-17T12:23:53.215Z,101049.16
2022-09-17T12:26:34.865Z,101048.00
2022-09-17T12:29:12.530Z,101037.84
2022-09-17T12:31:48.972Z,101022.13
2022-09-17T12:34:35.048Z,101027.50
2022-09-17T12:37:12.240Z,101030.94
2022-09-17T12:40:12.756Z,101025.22
2022-09-17T12:43:00.896Z,101024.78
2022-09-17T12:45:57.641Z,101018.66
2022-09-17T12:48:55.991Z,101019.91
2022-09-17T12:51:44.924Z,101007.38
2022-09-17T12:54:30.549Z,101014.13
2022-09-17T12:57:09.697Z,100999.22
2022-09-17T12:59:48.183Z,101000.00
2022-09-17T13:02:26.316Z,101001.34
2022-09-17T13:05:35.713Z,101002.47
2022-09-17T13:08:42.141Z,100993.47
2022-09-17T13:11:47.973Z,100978.63
2022-09-17T13:14:25.408Z,100973.41
2022-09-17T13:17:01.585Z,100977.47
2022-09-17T13:19:40.416Z,100972.44
2022-09-17T13:22:14.814Z,100977.56
2022-09-17T13:27:37.624Z,100963.78
2022-09-17T13:30:07.794Z,100973.84
2022-09-17T13:33:04.018Z,100959.16
2022-09-17T13:35:53.074Z,100962.56
2022-09-17T13:38:24.382Z,100958.72
2022-09-17T13:40:54.017Z,100960.63
2022-09-17T13:43:27.731Z,100985.91
2022-09-17T13:46:16.976Z,101028.72
2022-09-17T13:48:51.795Z,101044.81
2022-09-17T13:52:00.157Z,101027.44
2022-09-17T13:54:39.865Z,101009.91
2022-09-17T13:57:13.171Z,101013.63
2022-09-17T13:59:55.580Z,101008.38
2022-09-17T14:02:36.504Z,101021.34
2022-09-17T14:05:36.462Z,101030.09
2022-09-17T14:08:33.185Z,101025.66
2022-09-17T14:11:25.420Z,101017.91
2022-09-17T14:13:55.456Z,101013.97
2022-09-17T14:16:48.672Z,101014.34
2022-09-17T14:19:37.960Z,101024.81
2022-09-17T14:22:18.520Z,101020.63
2022-09-17T14:24:52.863Z,101020.69
2022-09-17T14:27:44.367Z,101013.50
2022-09-17T14:30:16.775Z,101008.97
2022-09-17T14:32:53.703Z,101023.41
2022-09-17T14:35:26.240Z,101009.72
2022-09-17T14:38:00.884Z,101009.31
2022-09-17T14:40:31.839Z,101000.56
2022-09-17T14:43:03.816Z,100991.97
2022-09-17T14:45:37.973Z,100993.03
2022-09-17T14:48:37.638Z,100996.34
2022-09-17T14:51:29.103Z,101003.38
2022-09-17T14:54:18.898Z,100998.53
2022-09-17T14:56:52.342Z,100992.34
2022-09-17T14:59:38.972Z,100995.97
2022-09-17T15:02:30.321Z,100994.72
2022-09-17T15:05:00.241Z,100990.81
2022-09-17T15:07:29.115Z,100989.75
2022-09-17T15:10:09.125Z,100987.47
2022-09-17T15:12:39.536Z,100990.91
2022-09-17T15:15:18.066Z,101000.47
2022-09-17T15:17:47.469Z,101001.94
2022-09-17T15:20:20.969Z,101001.19
2022-09-17T15:22:56.337Z,101006.75
2022-09-17T15:25:26.774Z,100997.41
2022-09-17T15:27:59.670Z,100999.13
2022-09-17T15:30:29.736Z,101002.16
2022-09-17T15:33:00.174Z,101001.38
2022-09-17T15:35:30.453Z,101007.56
2022-09-17T15:40:51.762Z,101016.19
2022-09-17T15:43:26.674Z,101003.44
2022-09-17T15:45:58.265Z,101009.59
2022-09-17T15:48:38.513Z,101014.22
2022-09-17T15:51:16.098Z,101007.38
2022-09-17T15:53:54.243Z,101011.59
2022-09-17T15:56:26.505Z,100998.44
2022-09-17T15:59:03.464Z,101007.16
2022-09-17T16:01:55.832Z,101023.34
2022-09-17T16:04:28.185Z,101014.44
2022-09-17T16:07:02.747Z,101023.88
2022-09-17T16:09:49.873Z,101049.94
2022-09-17T16:12:20.574Z,101048.00
2022-09-17T16:14:51.598Z,101050.25
2022-09-17T16:17:33.026Z,101038.03
2022-09-17T16:20:10.224Z,101040.47
2022-09-17T16:22:38.745Z,101047.56
2022-09-17T16:25:08.123Z,101045.50
2022-09-17T16:27:46.251Z,101047.66
2022-09-17T16:30:18.164Z,101045.41
2022-09-17T16:32:46.962Z,101039.94
2022-09-17T16:35:18.998Z,101041.41
2022-09-17T16:37:50.284Z,101042.72
2022-09-17T16:40:19.871Z,101056.63
2022-09-17T16:42:48.968Z,101050.78
2022-09-17T16:45:17.974Z,101048.09
2022-09-17T16:47:46.682Z,101050.56
2022-09-17T16:50:18.477Z,101050.25
2022-09-17T16:52:47.540Z,101049.03
2022-09-17T16:55:18.245Z,101051.38
2022-09-17T16:57:47.648Z,101051.53
2022-09-17T17:00:19.636Z,101055.38
2022-09-17T17:02:55.241Z,101058.78
2022-09-17T17:05:26.794Z,101057.59
2022-09-17T17:07:56.029Z,101059.78
2022-09-17T17:10:26.630Z,101060.06
2022-09-17T17:12:55.329Z,101064.66
2022-09-17T17:15:24.151Z,101053.00
2022-09-17T17:17:52.691Z,101061.22
2022-09-17T17:20:21.318Z,101063.25
2022-09-17T17:22:52.001Z,101057.72
2022-09-17T17:25:20.962Z,101055.81
2022-09-17T17:27:49.479Z,101065.13
2022-09-17T17:30:18.391Z,101064.19
2022-09-17T17:32:50.994Z,101070.41
2022-09-17T17:35:20.057Z,101062.66
2022-09-17T17:37:50.595Z,101068.81
2022-09-17T17:40:19.632Z,101062.88
2022-09-17T17:42:53.579Z,101057.94
2022-09-17T17:45:22.574Z,101062.66
2022-09-17T17:47:51.096Z,101063.97
2022-09-17T17:50:19.828Z,101058.00
2022-09-17T17:52:49.134Z,101067.44
2022-09-17T17:55:19.067Z,101071.03
2022-09-17T17:57:47.613Z,101071.59
2022-09-17T18:00:18.408Z,101067.28
2022-09-17T18:02:47.017Z,101081.09
2022-09-17T18:05:15.643Z,101072.50
2022-09-17T18:07:44.350Z,101086.38
2022-09-17T18:10:13.169Z,101082.63
2022-09-17T18:12:50.114Z,101089.72
2022-09-17T18:15:18.809Z,101090.78
2022-09-17T18:17:49.977Z,101091.03
2022-09-17T18:20:19.395Z,101087.50
2022-09-17T18:22:48.093Z,101091.50
2022-09-17T18:25:16.762Z,101099.50
2022-09-17T18:27:46.623Z,101094.31
2022-09-17T18:30:15.405Z,101103.03
2022-09-17T18:32:43.961Z,101103.88
2022-09-17T18:35:12.484Z,101100.25
2022-09-17T18:37:41.017Z,101099.75
2022-09-17T18:40:10.398Z,101108.16
2022-09-17T18:42:38.974Z,101102.94
2022-09-17T18:45:10.825Z,101106.69
2022-09-17T18:47:39.362Z,101101.88
2022-09-17T18:50:08.740Z,101101.31
2022-09-17T18:52:37.288Z,101098.50
2022-09-17T18:55:06.230Z,101102.69
2022-09-17T18:57:34.790Z,101108.25
2022-09-17T19:00:06.309Z,101108.66
2022-09-17T19:02:36.240Z,101108.91
2022-09-17T19:05:04.961Z,101114.59
2022-09-17T19:07:33.485Z,101125.34
2022-09-17T19:10:02.925Z,101117.16
2022-09-17T19:12:31.916Z,101110.97
2022-09-17T19:15:00.427Z,101116.44
2022-09-17T19:17:29.742Z,101116.56
2022-09-17T19:19:59.630Z,101118.19
2022-09-17T19:22:28.154Z,101114.25
2022-09-17T19:24:56.817Z,101119.03
2022-09-17T19:27:25.363Z,101118.91
2022-09-17T19:29:55.214Z,101115.19
2022-09-17T19:32:23.735Z,101123.16
2022-09-17T19:34:52.295Z,101124.19
2022-09-17T19:37:22.149Z,101123.47
2022-09-17T19:39:50.816Z,101118.81
2022-09-17T19:42:19.483Z,101135.47
2022-09-17T19:44:48.014Z,101133.19
2022-09-17T19:47:16.508Z,101136.34
2022-09-17T19:49:46.819Z,101137.28
2022-09-17T19:52:15.373Z,101140.16
2022-09-17T19:54:45.252Z,101145.63
2022-09-17T19:57:14.004Z,101146.22
2022-09-17T19:59:42.511Z,101140.50
2022-09-17T20:02:12.615Z,101143.72
2022-09-17T20:04:41.156Z,101146.59
2022-09-17T20:07:09.726Z,101140.00
2022-09-17T20:09:38.271Z,101149.44
2022-09-17T20:12:08.539Z,101143.63
2022-09-17T20:14:37.092Z,101148.97
2022-09-17T20:17:05.759Z,101152.63
2022-09-17T20:19:34.284Z,101153.44
2022-09-17T20:22:02.822Z,101153.44
2022-09-17T20:24:31.335Z,101153.81
2022-09-17T20:26:59.864Z,101144.28
2022-09-17T20:29:29.712Z,101151.34
2022-09-17T20:31:58.251Z,101152.13
2022-09-17T20:34:26.851Z,101149.53
2022-09-17T20:37:12.183Z,101158.06
2022-09-17T20:39:41.452Z,101150.88
2022-09-17T20:42:10.239Z,101157.84
2022-09-17T20:44:40.094Z,101168.06
2022-09-17T20:47:08.679Z,101167.22
2022-09-17T20:49:37.184Z,101162.06
2022-09-17T20:52:05.860Z,101164.16
2022-09-17T20:54:34.413Z,101156.16
2022-09-17T20:57:02.955Z,101168.69
2022-09-17T20:59:50.148Z,101161.63
2022-09-17T21:02:21.752Z,101164.75
2022-09-17T21:04:51.177Z,101166.78
2022-09-17T21:07:19.712Z,101177.06
2022-09-17T21:09:48.263Z,101180.16
2022-09-17T21:12:16.867Z,101183.25
2022-09-17T21:14:45.373Z,101177.50
2022-09-17T21:17:14.061Z,101183.13
2022-09-17T21:19:43.913Z,101184.16
2022-09-17T21:22:12.467Z,101186.97
2022-09-17T21:24:40.961Z,101188.13
2022-09-17T21:27:09.506Z,101175.22
2022-09-17T21:29:38.053Z,101173.13
2022-09-17T21:32:06.609Z,101164.63
2022-09-17T21:34:35.146Z,101165.00
2022-09-17T21:37:05.651Z,101172.44
2022-09-17T21:39:35.586Z,101170.53
2022-09-17T21:42:04.186Z,101164.03
2022-09-17T21:44:32.750Z,101170.00
2022-09-17T21:47:01.372Z,101166.66
2022-09-17T21:49:29.880Z,101175.22
2022-09-17T21:51:58.402Z,101175.94
2022-09-17T21:54:28.246Z,101181.38
2022-09-17T21:56:56.764Z,101177.59
2022-09-17T21:59:25.275Z,101181.41
2022-09-17T22:01:56.390Z,101175.97
2022-09-17T22:04:25.741Z,101175.34
2022-09-17T22:06:55.553Z,101178.34
2022-09-17T22:09:25.502Z,101172.97
2022-09-17T22:11:55.532Z,101189.06
2022-09-17T22:14:25.588Z,101183.78
2022-09-17T22:16:56.956Z,101177.84
2022-09-17T22:19:26.710Z,101183.81
2022-09-17T22:21:56.658Z,101184.31
2022-09-17T22:24:25.786Z,101178.06
2022-09-17T22:26:58.049Z,101183.53
2022-09-17T22:29:30.249Z,101180.34
2022-09-17T22:31:58.775Z,101186.59
2022-09-17T22:34:27.293Z,101186.09
2022-09-17T22:36:55.835Z,101188.38
2022-09-17T22:39:24.521Z,101198.34
2022-09-17T22:41:54.769Z,101191.75
2022-09-17T22:44:23.605Z,101185.84
2022-09-17T22:46:52.813Z,101182.91
2022-09-17T22:49:21.503Z,101178.94
2022-09-17T22:51:50.203Z,101181.59
2022-09-17T22:54:19.935Z,101193.47
2022-09-17T22:56:50.179Z,101178.00
2022-09-17T22:59:21.635Z,101184.50
2022-09-17T23:01:50.206Z,101171.00
2022-09-17T23:04:18.773Z,101171.13
2022-09-17T23:06:47.300Z,101177.22
2022-09-17T23:09:16.223Z,101174.59
2022-09-17T23:11:45.198Z,101164.50
2022-09-17T23:14:14.729Z,101164.97
2022-09-17T23:16:46.891Z,101160.81
2022-09-17T23:19:17.248Z,101158.88
2022-09-17T23:21:46.746Z,101163.78
2022-09-17T23:24:20.347Z,101159.66
2022-09-17T23:26:49.418Z,101164.78
2022-09-17T23:29:18.691Z,101167.69
2022-09-17T23:31:48.780Z,101159.59
2022-09-17T23:34:17.469Z,101151.00
2022-09-17T23:36:47.486Z,101158.72
2022-09-17T23:39:16.119Z,101152.59
2022-09-17T23:41:45.620Z,101148.69
2022-09-17T23:44:16.329Z,101158.97
2022-09-17T23:46:47.280Z,101149.94
2022-09-17T23:49:16.731Z,101157.59
2022-09-17T23:51:45.945Z,101149.41
2022-09-17T23:54:14.781Z,101147.47
2022-09-17T23:56:43.803Z,101153.78
2022-09-17T23:59:12.633Z,101153.66
